Time;durP1;ratioP1;P1;durP2;ratioP2;P2;SDS_P1;SDS_P2;PMS_P1;PMS_P2;Temp;Humidity;BMP_temperature;BMP_pressure;BME280_temperature;BME280_humidity;BME280_pressure;Samples;Min_cycle;Max_cycle;Signal;HPM_P1;HPM_P2
2023/10/11 00:00:35;;;;;;;38.00;22.90;;;;;;;9.26;100.00;99689.34;436163;1251;139399;-64
2023/10/11 00:10:49;;;;;;;34.40;22.60;;;;;;;9.29;100.00;99674.13;436238;1251;139623;-64
2023/10/11 00:20:58;;;;;;;33.40;22.80;;;;;;;9.36;100.00;99656.77;436502;1251;139471;-64
2023/10/11 00:31:06;;;;;;;31.90;20.20;;;;;;;9.42;100.00;99649.84;436832;1254;139449;-66
2023/10/11 00:41:17;;;;;;;31.90;21.30;;;;;;;9.49;100.00;99630.38;436862;1253;139971;-64
2023/10/11 00:51:29;;;;;;;27.70;19.60;;;;;;;9.55;100.00;99640.49;436331;1251;139200;-64
2023/10/11 01:01:36;;;;;;;28.20;17.70;;;;;;;9.61;100.00;99633.15;436204;1251;139842;-64
2023/10/11 01:11:42;;;;;;;25.30;19.30;;;;;;;9.65;100.00;99619.80;435975;1251;139762;-64
2023/10/11 01:21:51;;;;;;;24.60;16.60;;;;;;;9.68;100.00;99613.33;436414;1251;139304;-65
2023/10/11 01:31:57;;;;;;;25.20;18.70;;;;;;;9.73;100.00;99604.81;436951;1251;140280;-66
2023/10/11 01:42:03;;;;;;;25.90;16.90;;;;;;;9.78;100.00;99586.33;436566;1255;139258;-64
2023/10/11 01:52:12;;;;;;;22.80;16.90;;;;;;;9.81;100.00;99577.61;436331;1253;140238;-63
2023/10/11 02:02:18;;;;;;;21.90;17.00;;;;;;;9.81;100.00;99579.85;436658;1253;139453;-64
2023/10/11 02:12:23;;;;;;;24.80;17.80;;;;;;;9.82;100.00;99570.19;435994;1255;139584;-65
2023/10/11 02:22:32;;;;;;;20.80;16.60;;;;;;;9.81;100.00;99561.48;436153;1255;139511;-64
2023/10/11 02:32:41;;;;;;;20.70;18.10;;;;;;;9.79;100.00;99556.74;436277;1251;139063;-64
2023/10/11 02:42:49;;;;;;;22.10;16.60;;;;;;;9.76;100.00;99544.71;436417;1251;139213;-66
2023/10/11 02:52:59;;;;;;;21.10;16.00;;;;;;;9.73;100.00;99537.70;436695;1253;139407;-65
2023/10/11 03:03:08;;;;;;;22.00;16.20;;;;;;;9.73;100.00;99541.23;436636;1255;139598;-68
2023/10/11 03:13:23;;;;;;;17.80;15.20;;;;;;;9.74;100.00;99536.79;437222;1251;139447;-64
2023/10/11 03:23:29;;;;;;;22.00;15.60;;;;;;;9.71;100.00;99520.52;436517;1251;141152;-65
2023/10/11 03:33:36;;;;;;;20.00;15.20;;;;;;;9.63;100.00;99512.23;436077;1255;140210;-64
2023/10/11 03:43:42;;;;;;;23.30;16.50;;;;;;;9.60;100.00;99497.23;436167;1255;140799;-64
2023/10/11 03:53:48;;;;;;;16.30;14.40;;;;;;;9.55;100.00;99483.27;435913;1255;139563;-64
2023/10/11 04:03:56;;;;;;;19.00;14.40;;;;;;;9.46;100.00;99468.76;436180;1255;139152;-64
2023/10/11 04:14:02;;;;;;;20.40;16.20;;;;;;;9.40;100.00;99466.34;436343;1254;139094;-64
2023/10/11 04:24:09;;;;;;;19.20;16.30;;;;;;;9.35;100.00;99462.95;436102;1253;139779;-64
2023/10/11 04:34:14;;;;;;;25.10;16.30;;;;;;;9.35;100.00;99457.00;436473;1252;140199;-64
2023/10/11 04:44:22;;;;;;;26.40;18.60;;;;;;;9.37;100.00;99453.89;436190;1253;139159;-65
2023/10/11 04:54:36;;;;;;;20.20;16.50;;;;;;;9.30;100.00;99454.66;435990;1253;140856;-64
2023/10/11 05:04:44;;;;;;;20.70;18.30;;;;;;;9.23;100.00;99449.69;435974;1256;139265;-64
2023/10/11 05:15:07;;;;;;;25.50;18.70;;;;;;;9.24;100.00;99449.09;436992;1254;139230;-66
2023/10/11 05:25:37;;;;;;;23.90;20.10;;;;;;;9.30;100.00;99451.36;436486;1255;139222;-66
2023/10/11 05:36:09;;;;;;;23.80;18.90;;;;;;;9.52;100.00;99451.61;435873;1253;140725;-64
2023/10/11 05:56:38;;;;;;;22.90;18.30;;;;;;;10.42;100.00;99440.88;436187;1255;139215;-60
2023/10/11 06:06:46;;;;;;;19.40;17.10;;;;;;;11.13;100.00;99432.13;436501;1254;139304;-63
2023/10/11 06:16:57;;;;;;;19.30;15.80;;;;;;;11.97;100.00;99425.55;436251;1255;139494;-70
2023/10/11 06:28:09;;;;;;;15.40;13.30;;;;;;;13.08;100.00;99427.39;436164;1253;140919;-75
2023/10/11 06:37:52;;;;;;;12.70;11.30;;;;;;;14.52;100.00;99425.84;435886;1252;139352;-74
2023/10/11 06:48:06;;;;;;;13.50;10.80;;;;;;;15.48;100.00;99432.07;435936;1251;139325;-75
2023/10/11 06:58:15;;;;;;;11.90;10.70;;;;;;;16.38;100.00;99423.50;437880;1253;139698;-71
2023/10/11 07:08:27;;;;;;;13.60;10.50;;;;;;;17.08;100.00;99416.23;436880;1253;139514;-62
2023/10/11 07:18:42;;;;;;;14.40;9.10;;;;;;;18.54;99.90;99410.27;435832;1256;140076;-69
2023/10/11 07:28:50;;;;;;;13.00;9.60;;;;;;;20.31;97.91;99396.77;437501;1254;216043;-79
2023/10/11 07:39:00;;;;;;;8.20;7.40;;;;;;;21.82;93.44;99379.80;438979;1255;138484;-70
2023/10/11 07:49:07;;;;;;;10.40;7.90;;;;;;;22.91;88.78;99369.34;436667;1255;138409;-69
2023/10/11 07:59:12;;;;;;;10.10;6.90;;;;;;;24.25;85.68;99357.41;437151;1253;138355;-68
2023/10/11 08:09:21;;;;;;;8.20;7.40;;;;;;;25.31;82.10;99349.98;437090;1253;138202;-68
2023/10/11 08:19:29;;;;;;;7.20;5.80;;;;;;;26.92;77.23;99345.17;438472;1256;138385;-68
2023/10/11 08:29:35;;;;;;;7.00;6.10;;;;;;;28.54;73.69;99337.98;438450;1255;139009;-69
2023/10/11 08:39:54;;;;;;;;;;;;;;;30.91;68.61;99325.94;439313;1256;138608;-70
2023/10/11 08:50:00;;;;;;;11.40;7.00;;;;;;;32.79;63.10;99308.22;438466;1256;124467;-69
2023/10/11 09:00:17;;;;;;;6.20;5.40;;;;;;;32.79;58.66;99297.77;438429;1256;139160;-70
2023/10/11 09:10:27;;;;;;;13.40;5.50;;;;;;;30.44;56.64;99289.77;438398;1254;140540;-69
2023/10/11 09:20:40;;;;;;;8.10;4.90;;;;;;;28.03;57.19;99297.98;438685;1256;139193;-69
2023/10/11 09:30:46;;;;;;;9.00;5.60;;;;;;;26.17;58.96;99286.98;438415;1253;138106;-67
2023/10/11 09:40:54;;;;;;;6.10;5.10;;;;;;;24.99;60.09;99286.96;436342;1255;139569;-67
2023/10/11 09:51:00;;;;;;;27.30;8.50;;;;;;;24.37;61.78;99281.27;436618;1256;138198;-67
2023/10/11 10:01:11;;;;;;;7.90;4.70;;;;;;;23.86;61.91;99278.55;436592;1256;138572;-68
2023/10/11 10:11:19;;;;;;;8.80;5.20;;;;;;;23.20;63.06;99271.41;438498;1252;138043;-68
2023/10/11 10:21:26;;;;;;;6.50;4.40;;;;;;;23.01;63.39;99265.34;437325;1255;138506;-67
2023/10/11 10:31:33;;;;;;;6.70;4.90;;;;;;;23.13;64.06;99267.45;437670;1255;138613;-68
2023/10/11 10:41:40;;;;;;;10.30;4.70;;;;;;;23.23;63.83;99255.47;435964;1256;138734;-67
2023/10/11 10:51:48;;;;;;;11.60;5.80;;;;;;;22.88;64.04;99247.27;436224;1256;138863;-68
2023/10/11 11:01:54;;;;;;;5.60;4.10;;;;;;;22.65;64.27;99241.14;436660;1255;138689;-67
2023/10/11 11:12:14;;;;;;;10.20;5.50;;;;;;;22.53;64.85;99247.49;435945;1255;138133;-67
2023/10/11 11:22:25;;;;;;;8.80;4.10;;;;;;;22.39;65.08;99236.15;436086;1256;139297;-67
2023/10/11 11:32:39;;;;;;;14.50;4.60;;;;;;;22.18;65.25;99224.34;436415;1255;138041;-68
2023/10/11 11:42:47;;;;;;;8.30;4.80;;;;;;;22.07;65.45;99220.60;436293;1255;138430;-68
2023/10/11 11:52:57;;;;;;;4.40;3.90;;;;;;;22.04;66.02;99210.57;436287;1255;139094;-68
2023/10/11 12:03:05;;;;;;;6.90;4.60;;;;;;;22.03;66.07;99203.17;436217;1256;138010;-70
2023/10/11 12:13:13;;;;;;;8.60;5.30;;;;;;;21.97;66.40;99198.95;438340;1255;138854;-69
2023/10/11 12:23:19;;;;;;;6.60;4.80;;;;;;;21.91;66.32;99188.37;436167;1255;138471;-65
2023/10/11 12:33:27;;;;;;;8.00;4.80;;;;;;;21.78;66.55;99183.41;436070;1255;138624;-66
2023/10/11 12:43:33;;;;;;;10.60;5.50;;;;;;;21.71;66.55;99179.05;436089;1255;138129;-69
2023/10/11 12:53:39;;;;;;;8.90;5.20;;;;;;;21.62;66.40;99176.05;436229;1256;139180;-64
2023/10/11 13:03:52;;;;;;;9.90;4.50;;;;;;;21.50;66.30;99174.66;436146;1252;138234;-70
2023/10/11 13:14:05;;;;;;;6.90;3.90;;;;;;;21.47;65.87;99166.71;436978;1255;138301;-73
2023/10/11 13:24:12;;;;;;;17.00;5.10;;;;;;;21.46;66.12;99158.64;437527;1251;139575;-66
2023/10/11 13:34:18;;;;;;;7.10;5.00;;;;;;;21.51;66.32;99153.05;436227;1251;138802;-71
2023/10/11 13:44:26;;;;;;;8.10;4.90;;;;;;;21.47;66.76;99149.78;436162;1251;139841;-72
2023/10/11 13:54:36;;;;;;;;;;;;;;;21.40;67.04;99132.55;437815;1251;138197;-65
2023/10/11 14:04:48;;;;;;;9.60;4.20;;;;;;;21.38;66.58;99127.86;436108;1256;125458;-68
2023/10/11 14:14:55;;;;;;;7.20;4.00;;;;;;;21.23;66.13;99129.95;436921;1251;138714;-72
2023/10/11 14:25:01;;;;;;;9.20;4.90;;;;;;;21.15;65.95;99115.36;438148;1251;138013;-63
2023/10/11 14:35:09;;;;;;;6.50;4.60;;;;;;;21.07;66.35;99109.94;436583;1256;138421;-70
2023/10/11 14:45:17;;;;;;;10.40;5.10;;;;;;;20.92;66.85;99106.84;437666;1251;137986;-66
2023/10/11 14:55:24;;;;;;;9.90;4.80;;;;;;;20.67;67.24;99103.77;437491;1251;138126;-70
2023/10/11 15:05:35;;;;;;;8.30;5.10;;;;;;;20.39;68.11;99105.63;436967;1253;138847;-73
2023/10/11 15:15:41;;;;;;;7.20;4.60;;;;;;;20.13;68.88;99109.09;436248;1251;138129;-74
2023/10/11 15:25:47;;;;;;;9.00;5.40;;;;;;;19.78;69.71;99114.54;436177;1253;137885;-62
2023/10/11 15:35:57;;;;;;;8.80;5.40;;;;;;;19.40;70.55;99109.56;437469;1255;138138;-63
2023/10/11 15:46:04;;;;;;;8.90;5.20;;;;;;;19.02;71.27;99115.66;436200;1251;138194;-63
2023/10/11 15:56:14;;;;;;;10.90;6.90;;;;;;;18.72;72.23;99116.08;436508;1251;138145;-63
2023/10/11 16:06:24;;;;;;;12.90;6.60;;;;;;;18.37;73.18;99123.92;436341;1255;138351;-63
2023/10/11 16:16:34;;;;;;;10.70;6.80;;;;;;;18.07;74.48;99128.45;436303;1253;139291;-63
2023/10/11 16:26:41;;;;;;;10.70;7.00;;;;;;;17.82;75.76;99130.59;436732;1251;139179;-63
2023/10/11 16:36:47;;;;;;;9.20;6.70;;;;;;;17.65;77.12;99134.23;436350;1256;139065;-63
2023/10/11 16:46:53;;;;;;;12.90;6.90;;;;;;;17.46;78.25;99151.05;436095;1251;139014;-63
2023/10/11 16:56:59;;;;;;;10.10;8.00;;;;;;;17.27;79.28;99155.11;436529;1256;142176;-63
2023/10/11 17:07:07;;;;;;;14.10;7.50;;;;;;;17.11;80.18;99167.30;436080;1253;140650;-63
2023/10/11 17:17:15;;;;;;;10.90;7.10;;;;;;;16.94;81.12;99154.86;436507;1251;139766;-62
2023/10/11 17:27:21;;;;;;;15.90;8.10;;;;;;;16.76;81.89;99147.90;436433;1255;139051;-65
2023/10/11 17:37:27;;;;;;;11.30;7.30;;;;;;;16.64;82.68;99147.41;436488;1256;139965;-63
2023/10/11 17:47:34;;;;;;;10.60;7.20;;;;;;;16.59;83.14;99144.33;436005;1255;139194;-64
2023/10/11 17:57:41;;;;;;;14.70;7.20;;;;;;;16.50;83.48;99144.33;436296;1253;139305;-64
2023/10/11 18:07:51;;;;;;;12.40;7.10;;;;;;;16.43;83.72;99136.39;436363;1254;140085;-63
2023/10/11 18:18:00;;;;;;;11.40;6.80;;;;;;;16.37;84.15;99132.16;436223;1254;139373;-62
2023/10/11 18:28:07;;;;;;;12.50;7.00;;;;;;;16.30;84.23;99123.48;436294;1254;139043;-62
2023/10/11 18:38:13;;;;;;;10.10;7.20;;;;;;;16.27;84.48;99119.02;436445;1254;139196;-63
2023/10/11 18:48:19;;;;;;;14.20;7.30;;;;;;;16.23;84.55;99120.01;436357;1251;139602;-63
2023/10/11 18:58:25;;;;;;;17.70;8.20;;;;;;;16.14;84.61;99113.69;436044;1255;139103;-64
2023/10/11 19:08:30;;;;;;;10.20;5.90;;;;;;;16.11;84.83;99110.05;436125;1255;139020;-64
2023/10/11 19:18:38;;;;;;;10.30;5.70;;;;;;;16.21;85.18;99109.10;436058;1251;140240;-63
2023/10/11 19:28:44;;;;;;;8.20;6.00;;;;;;;16.33;85.12;99112.19;435956;1251;174482;-66
2023/10/11 19:38:51;;;;;;;10.00;6.70;;;;;;;16.35;84.88;99112.02;436141;1251;139520;-64
2023/10/11 19:48:56;;;;;;;9.70;6.10;;;;;;;16.30;85.08;99113.01;436426;1253;140288;-63
2023/10/11 19:59:02;;;;;;;11.50;6.20;;;;;;;16.36;85.56;99112.67;436294;1255;139771;-62
2023/10/11 20:09:08;;;;;;;11.10;6.40;;;;;;;16.38;85.46;99112.92;436278;1251;138937;-63
2023/10/11 20:19:17;;;;;;;11.50;6.50;;;;;;;16.41;85.65;99108.68;436445;1253;138900;-62
2023/10/11 20:29:23;;;;;;;9.50;7.70;;;;;;;16.36;85.69;99099.59;436325;1255;139036;-63
2023/10/11 20:39:29;;;;;;;14.50;7.00;;;;;;;16.31;85.98;99096.38;436168;1253;139317;-63
2023/10/11 20:49:36;;;;;;;11.60;6.70;;;;;;;16.27;86.24;99093.02;436202;1255;139390;-63
2023/10/11 20:59:43;;;;;;;13.80;8.10;;;;;;;16.21;86.35;99087.04;436071;1253;138930;-63
2023/10/11 21:09:49;;;;;;;10.70;6.70;;;;;;;16.09;86.54;99080.92;436188;1251;138951;-63
2023/10/11 21:19:56;;;;;;;9.20;6.50;;;;;;;15.95;86.94;99078.31;435921;1251;138941;-63
2023/10/11 21:30:03;;;;;;;11.60;8.40;;;;;;;15.87;87.40;99068.67;435986;1256;139123;-62
2023/10/11 21:40:13;;;;;;;11.60;7.60;;;;;;;15.83;87.95;99063.59;435854;1256;138909;-62
2023/10/11 21:50:20;;;;;;;11.70;7.10;;;;;;;15.77;88.36;99051.93;436019;1255;139162;-63
2023/10/11 22:00:45;;;;;;;8.70;6.90;;;;;;;15.72;88.74;99045.36;436066;1255;139146;-63
2023/10/11 22:10:54;;;;;;;14.40;8.00;;;;;;;15.67;89.17;99036.95;435978;1256;139225;-62
2023/10/11 22:21:00;;;;;;;9.10;7.00;;;;;;;15.61;89.33;99032.46;436326;1253;139489;-63
2023/10/11 22:31:06;;;;;;;11.30;7.50;;;;;;;15.50;89.59;99025.91;436102;1255;139618;-63
2023/10/11 22:41:17;;;;;;;8.30;6.10;;;;;;;15.40;89.99;99024.01;435815;1255;139007;-63
2023/10/11 22:51:27;;;;;;;15.30;9.00;;;;;;;15.43;90.51;99024.79;435917;1256;138948;-62
2023/10/11 23:01:33;;;;;;;13.90;8.40;;;;;;;15.41;90.64;99014.17;435791;1251;139758;-63
2023/10/11 23:11:52;;;;;;;9.80;7.20;;;;;;;15.45;90.93;99013.33;435724;1251;139075;-63
2023/10/11 23:22:01;;;;;;;13.90;6.90;;;;;;;15.46;91.13;99007.25;436039;1255;138735;-63
2023/10/11 23:32:07;;;;;;;11.40;6.90;;;;;;;15.47;91.22;99004.27;436146;1254;139037;-62
2023/10/11 23:42:15;;;;;;;12.80;6.80;;;;;;;15.42;91.20;98997.22;436342;1255;140003;-62
2023/10/11 23:52:22;;;;;;;13.50;6.80;;;;;;;15.42;91.46;98991.70;435999;1255;139133;-63
